sensor_id;sensor_type;location;lat;lon;timestamp;temperature;humidity
16980;DHT22;42288;52.182;21.156;2022-12-29T00:01:29;7.90;97.00
16980;DHT22;42288;52.182;21.156;2022-12-29T00:03:55;8.00;96.60
16980;DHT22;42288;52.182;21.156;2022-12-29T00:06:20;8.00;96.80
16980;DHT22;42288;52.182;21.156;2022-12-29T00:08:46;8.10;96.40
16980;DHT22;42288;52.182;21.156;2022-12-29T00:11:17;8.20;96.50
16980;DHT22;42288;52.182;21.156;2022-12-29T00:13:44;8.00;96.60
16980;DHT22;42288;52.182;21.156;2022-12-29T00:16:29;8.00;96.90
16980;DHT22;42288;52.182;21.156;2022-12-29T00:18:55;8.00;96.60
16980;DHT22;42288;52.182;21.156;2022-12-29T00:21:22;7.90;96.60
16980;DHT22;42288;52.182;21.156;2022-12-29T00:24:08;7.90;96.70
16980;DHT22;42288;52.182;21.156;2022-12-29T00:29:46;7.80;96.80
16980;DHT22;42288;52.182;21.156;2022-12-29T00:32:30;7.90;96.90
16980;DHT22;42288;52.182;21.156;2022-12-29T00:37:48;8.00;96.40
16980;DHT22;42288;52.182;21.156;2022-12-29T00:40:32;7.80;96.70
16980;DHT22;42288;52.182;21.156;2022-12-29T00:43:16;7.90;96.60
16980;DHT22;42288;52.182;21.156;2022-12-29T00:46:00;8.00;96.80
16980;DHT22;42288;52.182;21.156;2022-12-29T00:48:26;8.10;96.70
16980;DHT22;42288;52.182;21.156;2022-12-29T00:51:10;8.10;96.40
16980;DHT22;42288;52.182;21.156;2022-12-29T00:53:35;8.00;96.30
16980;DHT22;42288;52.182;21.156;2022-12-29T00:56:01;8.00;96.40
16980;DHT22;42288;52.182;21.156;2022-12-29T00:58:28;8.00;96.50
16980;DHT22;42288;52.182;21.156;2022-12-29T01:01:01;7.90;96.40
16980;DHT22;42288;52.182;21.156;2022-12-29T01:03:27;8.00;96.60
16980;DHT22;42288;52.182;21.156;2022-12-29T01:05:52;7.80;96.30
16980;DHT22;42288;52.182;21.156;2022-12-29T01:08:18;8.00;96.40
16980;DHT22;42288;52.182;21.156;2022-12-29T01:10:43;7.90;96.20
16980;DHT22;42288;52.182;21.156;2022-12-29T01:13:09;7.90;96.20
16980;DHT22;42288;52.182;21.156;2022-12-29T01:15:35;7.70;96.50
16980;DHT22;42288;52.182;21.156;2022-12-29T01:18:00;7.70;96.80
16980;DHT22;42288;52.182;21.156;2022-12-29T01:20:26;7.80;97.00
16980;DHT22;42288;52.182;21.156;2022-12-29T01:22:52;7.80;96.50
16980;DHT22;42288;52.182;21.156;2022-12-29T01:25:18;7.90;96.30
16980;DHT22;42288;52.182;21.156;2022-12-29T01:27:44;7.90;96.50
16980;DHT22;42288;52.182;21.156;2022-12-29T01:30:10;8.00;96.10
16980;DHT22;42288;52.182;21.156;2022-12-29T01:32:35;7.90;96.20
16980;DHT22;42288;52.182;21.156;2022-12-29T01:35:01;8.00;96.30
16980;DHT22;42288;52.182;21.156;2022-12-29T01:37:27;7.90;96.30
16980;DHT22;42288;52.182;21.156;2022-12-29T01:39:52;8.00;96.30
16980;DHT22;42288;52.182;21.156;2022-12-29T01:42:19;7.70;96.40
16980;DHT22;42288;52.182;21.156;2022-12-29T01:44:49;7.70;96.60
16980;DHT22;42288;52.182;21.156;2022-12-29T01:50:30;7.60;96.70
16980;DHT22;42288;52.182;21.156;2022-12-29T01:53:01;7.70;96.40
16980;DHT22;42288;52.182;21.156;2022-12-29T01:55:30;7.80;96.10
16980;DHT22;42288;52.182;21.156;2022-12-29T01:57:57;7.60;95.90
16980;DHT22;42288;52.182;21.156;2022-12-29T02:00:24;7.80;96.40
16980;DHT22;42288;52.182;21.156;2022-12-29T02:02:54;7.80;96.20
16980;DHT22;42288;52.182;21.156;2022-12-29T02:05:24;7.70;95.90
16980;DHT22;42288;52.182;21.156;2022-12-29T02:07:53;7.60;96.10
16980;DHT22;42288;52.182;21.156;2022-12-29T02:10:25;7.70;95.90
16980;DHT22;42288;52.182;21.156;2022-12-29T02:12:51;7.90;95.80
16980;DHT22;42288;52.182;21.156;2022-12-29T02:15:22;7.90;95.60
16980;DHT22;42288;52.182;21.156;2022-12-29T02:21:08;7.60;96.40
16980;DHT22;42288;52.182;21.156;2022-12-29T02:32:26;7.70;97.20
16980;DHT22;42288;52.182;21.156;2022-12-29T02:46:10;7.50;98.80
16980;DHT22;42288;52.182;21.156;2022-12-29T02:48:42;7.50;98.80
16980;DHT22;42288;52.182;21.156;2022-12-29T02:51:50;7.50;98.70
16980;DHT22;42288;52.182;21.156;2022-12-29T02:54:18;7.50;99.10
16980;DHT22;42288;52.182;21.156;2022-12-29T02:57:04;7.60;99.40
16980;DHT22;42288;52.182;21.156;2022-12-29T02:59:30;7.40;99.70
16980;DHT22;42288;52.182;21.156;2022-12-29T03:02:07;7.60;99.90
16980;DHT22;42288;52.182;21.156;2022-12-29T03:15:56;7.60;99.90
16980;DHT22;42288;52.182;21.156;2022-12-29T03:18:49;7.50;99.90
16980;DHT22;42288;52.182;21.156;2022-12-29T03:21:37;7.40;99.90
16980;DHT22;42288;52.182;21.156;2022-12-29T03:24:27;7.20;99.90
16980;DHT22;42288;52.182;21.156;2022-12-29T03:26:56;7.30;99.90
16980;DHT22;42288;52.182;21.156;2022-12-29T03:29:24;7.20;99.90
16980;DHT22;42288;52.182;21.156;2022-12-29T03:31:53;7.00;99.90
16980;DHT22;42288;52.182;21.156;2022-12-29T03:34:21;7.00;99.90
16980;DHT22;42288;52.182;21.156;2022-12-29T03:36:52;7.00;99.90
16980;DHT22;42288;52.182;21.156;2022-12-29T03:39:22;7.10;99.90
16980;DHT22;42288;52.182;21.156;2022-12-29T03:41:51;6.70;99.90
16980;DHT22;42288;52.182;21.156;2022-12-29T03:44:21;6.60;99.90
16980;DHT22;42288;52.182;21.156;2022-12-29T03:46:46;6.60;99.90
16980;DHT22;42288;52.182;21.156;2022-12-29T03:49:12;6.30;99.90
16980;DHT22;42288;52.182;21.156;2022-12-29T03:51:37;6.10;99.90
16980;DHT22;42288;52.182;21.156;2022-12-29T03:54:03;6.20;99.90
16980;DHT22;42288;52.182;21.156;2022-12-29T03:56:28;6.10;99.90
16980;DHT22;42288;52.182;21.156;2022-12-29T03:58:54;6.00;99.90
16980;DHT22;42288;52.182;21.156;2022-12-29T04:01:20;6.10;99.90
16980;DHT22;42288;52.182;21.156;2022-12-29T04:03:45;5.90;99.90
16980;DHT22;42288;52.182;21.156;2022-12-29T04:06:11;6.00;99.90
16980;DHT22;42288;52.182;21.156;2022-12-29T04:08:36;6.10;99.90
16980;DHT22;42288;52.182;21.156;2022-12-29T04:11:02;6.10;99.90
16980;DHT22;42288;52.182;21.156;2022-12-29T04:13:27;5.70;99.90
16980;DHT22;42288;52.182;21.156;2022-12-29T04:15:53;5.90;99.90
16980;DHT22;42288;52.182;21.156;2022-12-29T04:18:18;5.80;99.90
16980;DHT22;42288;52.182;21.156;2022-12-29T04:20:44;5.60;99.90
16980;DHT22;42288;52.182;21.156;2022-12-29T04:23:26;5.60;99.90
16980;DHT22;42288;52.182;21.156;2022-12-29T04:25:51;5.60;99.90
16980;DHT22;42288;52.182;21.156;2022-12-29T04:28:17;5.50;99.90
16980;DHT22;42288;52.182;21.156;2022-12-29T04:30:43;5.50;99.90
16980;DHT22;42288;52.182;21.156;2022-12-29T04:33:09;5.60;99.90
16980;DHT22;42288;52.182;21.156;2022-12-29T04:35:35;5.70;99.90
16980;DHT22;42288;52.182;21.156;2022-12-29T04:38:01;5.90;99.90
16980;DHT22;42288;52.182;21.156;2022-12-29T04:40:27;6.20;99.90
16980;DHT22;42288;52.182;21.156;2022-12-29T04:42:52;6.10;99.90
16980;DHT22;42288;52.182;21.156;2022-12-29T04:45:18;6.20;99.90
16980;DHT22;42288;52.182;21.156;2022-12-29T04:47:43;6.30;99.90
16980;DHT22;42288;52.182;21.156;2022-12-29T04:50:09;5.80;99.90
16980;DHT22;42288;52.182;21.156;2022-12-29T04:52:35;5.70;99.90
16980;DHT22;42288;52.182;21.156;2022-12-29T04:55:01;5.50;99.90
16980;DHT22;42288;52.182;21.156;2022-12-29T04:57:26;5.60;99.90
16980;DHT22;42288;52.182;21.156;2022-12-29T04:59:52;5.70;99.90
16980;DHT22;42288;52.182;21.156;2022-12-29T05:02:18;5.80;99.90
16980;DHT22;42288;52.182;21.156;2022-12-29T05:04:44;5.80;99.90
16980;DHT22;42288;52.182;21.156;2022-12-29T05:07:09;5.80;99.90
16980;DHT22;42288;52.182;21.156;2022-12-29T05:09:35;5.50;99.90
16980;DHT22;42288;52.182;21.156;2022-12-29T05:12:00;5.50;99.90
16980;DHT22;42288;52.182;21.156;2022-12-29T05:14:26;5.70;99.90
16980;DHT22;42288;52.182;21.156;2022-12-29T05:16:52;5.70;99.90
16980;DHT22;42288;52.182;21.156;2022-12-29T05:19:17;5.60;99.90
16980;DHT22;42288;52.182;21.156;2022-12-29T05:21:43;5.70;99.90
16980;DHT22;42288;52.182;21.156;2022-12-29T05:24:09;5.60;99.90
16980;DHT22;42288;52.182;21.156;2022-12-29T05:26:34;5.70;99.90
16980;DHT22;42288;52.182;21.156;2022-12-29T05:29:00;5.60;99.90
16980;DHT22;42288;52.182;21.156;2022-12-29T05:31:26;5.70;99.90
16980;DHT22;42288;52.182;21.156;2022-12-29T05:33:52;5.70;99.90
16980;DHT22;42288;52.182;21.156;2022-12-29T05:36:18;5.60;99.90
16980;DHT22;42288;52.182;21.156;2022-12-29T05:38:43;5.70;99.90
16980;DHT22;42288;52.182;21.156;2022-12-29T05:41:09;5.70;99.90
16980;DHT22;42288;52.182;21.156;2022-12-29T05:43:35;5.70;99.90
16980;DHT22;42288;52.182;21.156;2022-12-29T05:46:01;5.60;99.90
16980;DHT22;42288;52.182;21.156;2022-12-29T05:48:27;5.60;99.90
16980;DHT22;42288;52.182;21.156;2022-12-29T05:50:52;5.30;99.90
16980;DHT22;42288;52.182;21.156;2022-12-29T05:53:18;5.20;99.90
16980;DHT22;42288;52.182;21.156;2022-12-29T05:55:47;5.50;99.90
16980;DHT22;42288;52.182;21.156;2022-12-29T05:58:13;5.40;99.90
16980;DHT22;42288;52.182;21.156;2022-12-29T06:00:40;5.20;99.90
16980;DHT22;42288;52.182;21.156;2022-12-29T06:03:05;5.30;99.90
16980;DHT22;42288;52.182;21.156;2022-12-29T06:05:31;5.40;99.90
16980;DHT22;42288;52.182;21.156;2022-12-29T06:07:56;5.50;99.90
16980;DHT22;42288;52.182;21.156;2022-12-29T06:10:22;5.50;99.90
16980;DHT22;42288;52.182;21.156;2022-12-29T06:12:47;5.50;99.90
16980;DHT22;42288;52.182;21.156;2022-12-29T06:15:13;5.70;99.90
16980;DHT22;42288;52.182;21.156;2022-12-29T06:17:40;5.70;99.90
16980;DHT22;42288;52.182;21.156;2022-12-29T06:20:07;5.80;99.90
16980;DHT22;42288;52.182;21.156;2022-12-29T06:22:32;5.90;99.90
16980;DHT22;42288;52.182;21.156;2022-12-29T06:24:58;5.90;99.90
16980;DHT22;42288;52.182;21.156;2022-12-29T06:27:24;5.90;99.90
16980;DHT22;42288;52.182;21.156;2022-12-29T06:29:49;5.90;99.90
16980;DHT22;42288;52.182;21.156;2022-12-29T06:32:15;6.00;99.90
16980;DHT22;42288;52.182;21.156;2022-12-29T06:34:40;6.00;99.90
16980;DHT22;42288;52.182;21.156;2022-12-29T06:37:06;5.90;99.90
16980;DHT22;42288;52.182;21.156;2022-12-29T06:39:32;6.00;99.90
16980;DHT22;42288;52.182;21.156;2022-12-29T06:41:58;6.10;99.90
16980;DHT22;42288;52.182;21.156;2022-12-29T06:44:24;6.00;99.90
16980;DHT22;42288;52.182;21.156;2022-12-29T06:46:50;5.90;99.90
16980;DHT22;42288;52.182;21.156;2022-12-29T06:49:16;5.70;99.90
16980;DHT22;42288;52.182;21.156;2022-12-29T06:51:42;5.80;99.90
16980;DHT22;42288;52.182;21.156;2022-12-29T06:54:07;5.90;99.90
16980;DHT22;42288;52.182;21.156;2022-12-29T06:56:33;5.80;99.90
16980;DHT22;42288;52.182;21.156;2022-12-29T06:58:59;6.00;99.90
16980;DHT22;42288;52.182;21.156;2022-12-29T07:01:27;5.90;99.90
16980;DHT22;42288;52.182;21.156;2022-12-29T07:03:53;5.60;99.90
16980;DHT22;42288;52.182;21.156;2022-12-29T07:06:19;5.80;99.90
16980;DHT22;42288;52.182;21.156;2022-12-29T07:08:44;5.80;99.90
16980;DHT22;42288;52.182;21.156;2022-12-29T07:11:10;5.80;99.90
16980;DHT22;42288;52.182;21.156;2022-12-29T07:13:36;5.70;99.90
16980;DHT22;42288;52.182;21.156;2022-12-29T07:16:08;5.70;99.90
16980;DHT22;42288;52.182;21.156;2022-12-29T07:18:34;5.80;99.90
16980;DHT22;42288;52.182;21.156;2022-12-29T07:21:00;5.80;99.90
16980;DHT22;42288;52.182;21.156;2022-12-29T07:23:26;5.80;99.90
16980;DHT22;42288;52.182;21.156;2022-12-29T07:26:09;5.90;99.90
16980;DHT22;42288;52.182;21.156;2022-12-29T07:28:36;6.00;99.90
16980;DHT22;42288;52.182;21.156;2022-12-29T07:31:03;5.90;99.90
16980;DHT22;42288;52.182;21.156;2022-12-29T07:33:29;6.10;99.90
16980;DHT22;42288;52.182;21.156;2022-12-29T07:35:55;6.10;99.90
16980;DHT22;42288;52.182;21.156;2022-12-29T07:38:21;6.10;99.90
16980;DHT22;42288;52.182;21.156;2022-12-29T07:40:46;6.10;99.90
16980;DHT22;42288;52.182;21.156;2022-12-29T07:43:12;6.10;99.90
16980;DHT22;42288;52.182;21.156;2022-12-29T07:45:37;6.30;99.90
16980;DHT22;42288;52.182;21.156;2022-12-29T07:48:04;6.10;99.90
16980;DHT22;42288;52.182;21.156;2022-12-29T07:50:33;6.20;99.90
16980;DHT22;42288;52.182;21.156;2022-12-29T07:52:59;6.20;99.90
16980;DHT22;42288;52.182;21.156;2022-12-29T07:55:24;6.20;99.90
16980;DHT22;42288;52.182;21.156;2022-12-29T07:57:52;6.30;99.90
16980;DHT22;42288;52.182;21.156;2022-12-29T08:00:17;6.40;99.90
16980;DHT22;42288;52.182;21.156;2022-12-29T08:02:43;6.40;99.90
16980;DHT22;42288;52.182;21.156;2022-12-29T08:05:09;6.30;99.90
16980;DHT22;42288;52.182;21.156;2022-12-29T08:07:34;6.20;99.90
16980;DHT22;42288;52.182;21.156;2022-12-29T08:10:00;6.30;99.90
16980;DHT22;42288;52.182;21.156;2022-12-29T08:12:26;6.50;99.90
16980;DHT22;42288;52.182;21.156;2022-12-29T08:14:52;6.60;99.90
16980;DHT22;42288;52.182;21.156;2022-12-29T08:17:18;6.60;99.90
16980;DHT22;42288;52.182;21.156;2022-12-29T08:19:43;6.60;99.90
16980;DHT22;42288;52.182;21.156;2022-12-29T08:22:09;6.60;99.90
16980;DHT22;42288;52.182;21.156;2022-12-29T08:24:34;6.60;99.90
16980;DHT22;42288;52.182;21.156;2022-12-29T08:27:00;6.50;99.90
16980;DHT22;42288;52.182;21.156;2022-12-29T08:29:26;6.70;99.90
16980;DHT22;42288;52.182;21.156;2022-12-29T08:31:51;7.00;99.90
16980;DHT22;42288;52.182;21.156;2022-12-29T08:34:17;7.10;99.90
16980;DHT22;42288;52.182;21.156;2022-12-29T08:36:42;7.20;99.90
16980;DHT22;42288;52.182;21.156;2022-12-29T08:39:08;7.40;99.90
16980;DHT22;42288;52.182;21.156;2022-12-29T08:41:34;7.50;99.90
16980;DHT22;42288;52.182;21.156;2022-12-29T08:44:00;7.70;99.50
16980;DHT22;42288;52.182;21.156;2022-12-29T08:46:25;7.70;97.90
16980;DHT22;42288;52.182;21.156;2022-12-29T08:48:51;7.90;97.90
16980;DHT22;42288;52.182;21.156;2022-12-29T08:51:17;8.10;97.30
16980;DHT22;42288;52.182;21.156;2022-12-29T08:53:42;8.20;97.50
16980;DHT22;42288;52.182;21.156;2022-12-29T08:56:09;8.20;97.20
16980;DHT22;42288;52.182;21.156;2022-12-29T08:58:35;8.40;96.50
16980;DHT22;42288;52.182;21.156;2022-12-29T09:01:00;8.30;95.60
16980;DHT22;42288;52.182;21.156;2022-12-29T09:03:27;8.60;95.40
16980;DHT22;42288;52.182;21.156;2022-12-29T09:05:53;8.50;95.30
16980;DHT22;42288;52.182;21.156;2022-12-29T09:08:19;8.50;95.60
16980;DHT22;42288;52.182;21.156;2022-12-29T09:10:45;8.40;94.60
16980;DHT22;42288;52.182;21.156;2022-12-29T09:13:12;8.60;94.80
16980;DHT22;42288;52.182;21.156;2022-12-29T09:15:38;8.80;94.30
16980;DHT22;42288;52.182;21.156;2022-12-29T09:18:05;8.80;93.50
16980;DHT22;42288;52.182;21.156;2022-12-29T09:20:30;8.90;93.50
16980;DHT22;42288;52.182;21.156;2022-12-29T09:22:56;9.10;93.40
16980;DHT22;42288;52.182;21.156;2022-12-29T09:25:22;8.90;93.10
16980;DHT22;42288;52.182;21.156;2022-12-29T09:27:50;8.90;93.40
16980;DHT22;42288;52.182;21.156;2022-12-29T09:30:19;8.90;93.30
16980;DHT22;42288;52.182;21.156;2022-12-29T09:32:45;8.90;93.00
16980;DHT22;42288;52.182;21.156;2022-12-29T09:35:10;8.90;93.40
16980;DHT22;42288;52.182;21.156;2022-12-29T09:37:36;8.90;93.40
16980;DHT22;42288;52.182;21.156;2022-12-29T09:40:03;9.00;92.80
16980;DHT22;42288;52.182;21.156;2022-12-29T09:42:45;9.10;92.80
16980;DHT22;42288;52.182;21.156;2022-12-29T09:45:24;9.10;92.30
16980;DHT22;42288;52.182;21.156;2022-12-29T09:47:51;9.00;92.10
16980;DHT22;42288;52.182;21.156;2022-12-29T09:50:30;9.20;92.30
16980;DHT22;42288;52.182;21.156;2022-12-29T09:55:39;9.10;91.40
16980;DHT22;42288;52.182;21.156;2022-12-29T09:58:15;9.20;91.60
16980;DHT22;42288;52.182;21.156;2022-12-29T10:06:23;9.30;91.70
16980;DHT22;42288;52.182;21.156;2022-12-29T10:09:08;9.10;92.10
16980;DHT22;42288;52.182;21.156;2022-12-29T10:20:50;9.10;92.00
16980;DHT22;42288;52.182;21.156;2022-12-29T10:23:29;9.20;91.60
16980;DHT22;42288;52.182;21.156;2022-12-29T10:25:59;9.20;91.90
16980;DHT22;42288;52.182;21.156;2022-12-29T10:28:40;9.10;91.90
16980;DHT22;42288;52.182;21.156;2022-12-29T10:31:18;9.20;92.00
16980;DHT22;42288;52.182;21.156;2022-12-29T10:33:49;9.30;91.30
16980;DHT22;42288;52.182;21.156;2022-12-29T10:36:24;9.50;91.60
16980;DHT22;42288;52.182;21.156;2022-12-29T10:41:30;9.40;91.50
16980;DHT22;42288;52.182;21.156;2022-12-29T10:44:00;9.50;91.20
16980;DHT22;42288;52.182;21.156;2022-12-29T10:46:32;9.40;91.00
16980;DHT22;42288;52.182;21.156;2022-12-29T10:48:58;9.60;91.00
16980;DHT22;42288;52.182;21.156;2022-12-29T10:51:26;9.60;90.70
16980;DHT22;42288;52.182;21.156;2022-12-29T10:56:34;9.90;90.90
16980;DHT22;42288;52.182;21.156;2022-12-29T10:59:10;9.80;90.20
16980;DHT22;42288;52.182;21.156;2022-12-29T11:01:47;10.00;89.80
16980;DHT22;42288;52.182;21.156;2022-12-29T11:07:03;9.80;90.30
16980;DHT22;42288;52.182;21.156;2022-12-29T11:09:31;9.80;90.20
16980;DHT22;42288;52.182;21.156;2022-12-29T11:11:57;9.60;90.40
16980;DHT22;42288;52.182;21.156;2022-12-29T11:14:29;9.70;90.30
16980;DHT22;42288;52.182;21.156;2022-12-29T11:17:00;9.80;90.50
16980;DHT22;42288;52.182;21.156;2022-12-29T11:19:32;9.90;90.80
16980;DHT22;42288;52.182;21.156;2022-12-29T11:24:46;10.10;89.20
16980;DHT22;42288;52.182;21.156;2022-12-29T11:27:21;10.10;89.50
16980;DHT22;42288;52.182;21.156;2022-12-29T11:29:49;10.20;89.00
16980;DHT22;42288;52.182;21.156;2022-12-29T11:32:24;10.20;88.40
16980;DHT22;42288;52.182;21.156;2022-12-29T11:34:51;10.20;88.10
16980;DHT22;42288;52.182;21.156;2022-12-29T11:37:33;10.10;89.20
16980;DHT22;42288;52.182;21.156;2022-12-29T11:40:18;10.00;88.80
16980;DHT22;42288;52.182;21.156;2022-12-29T11:42:51;9.90;89.70
16980;DHT22;42288;52.182;21.156;2022-12-29T11:45:23;10.00;88.30
16980;DHT22;42288;52.182;21.156;2022-12-29T11:48:07;10.10;88.70
16980;DHT22;42288;52.182;21.156;2022-12-29T11:50:37;10.10;88.20
16980;DHT22;42288;52.182;21.156;2022-12-29T11:53:17;10.10;88.50
16980;DHT22;42288;52.182;21.156;2022-12-29T11:55:59;10.20;88.30
16980;DHT22;42288;52.182;21.156;2022-12-29T11:58:33;10.20;87.90
16980;DHT22;42288;52.182;21.156;2022-12-29T12:01:16;10.20;87.20
16980;DHT22;42288;52.182;21.156;2022-12-29T12:04:01;10.10;88.30
16980;DHT22;42288;52.182;21.156;2022-12-29T12:06:29;10.10;88.30
16980;DHT22;42288;52.182;21.156;2022-12-29T12:09:06;10.20;89.10
16980;DHT22;42288;52.182;21.156;2022-12-29T12:11:36;10.20;88.00
16980;DHT22;42288;52.182;21.156;2022-12-29T12:14:17;10.20;88.00
16980;DHT22;42288;52.182;21.156;2022-12-29T12:16:48;10.20;88.50
16980;DHT22;42288;52.182;21.156;2022-12-29T12:22:27;10.30;88.40
16980;DHT22;42288;52.182;21.156;2022-12-29T12:24:59;10.20;88.40
16980;DHT22;42288;52.182;21.156;2022-12-29T12:27:33;10.30;88.20
16980;DHT22;42288;52.182;21.156;2022-12-29T12:30:17;10.20;88.30
16980;DHT22;42288;52.182;21.156;2022-12-29T12:32:54;10.20;88.30
16980;DHT22;42288;52.182;21.156;2022-12-29T12:46:41;10.20;88.70
16980;DHT22;42288;52.182;21.156;2022-12-29T13:00:10;10.30;89.60
16980;DHT22;42288;52.182;21.156;2022-12-29T13:03:11;10.30;89.40
16980;DHT22;42288;52.182;21.156;2022-12-29T13:18:59;10.50;89.90
16980;DHT22;42288;52.182;21.156;2022-12-29T13:21:50;10.60;89.50
16980;DHT22;42288;52.182;21.156;2022-12-29T13:29:47;10.50;90.10
16980;DHT22;42288;52.182;21.156;2022-12-29T13:38:39;10.50;89.20
16980;DHT22;42288;52.182;21.156;2022-12-29T13:41:13;10.50;90.20
16980;DHT22;42288;52.182;21.156;2022-12-29T13:43:41;10.40;89.80
16980;DHT22;42288;52.182;21.156;2022-12-29T13:46:12;10.40;90.00
16980;DHT22;42288;52.182;21.156;2022-12-29T13:48:58;10.50;90.20
16980;DHT22;42288;52.182;21.156;2022-12-29T13:51:25;10.50;89.90
16980;DHT22;42288;52.182;21.156;2022-12-29T13:54:25;10.60;89.70
16980;DHT22;42288;52.182;21.156;2022-12-29T13:57:02;10.60;89.30
16980;DHT22;42288;52.182;21.156;2022-12-29T13:59:52;10.60;89.00
16980;DHT22;42288;52.182;21.156;2022-12-29T14:08:04;10.60;89.80
16980;DHT22;42288;52.182;21.156;2022-12-29T14:10:48;10.70;89.30
16980;DHT22;42288;52.182;21.156;2022-12-29T14:13:16;10.60;89.20
16980;DHT22;42288;52.182;21.156;2022-12-29T14:15:46;10.70;88.70
16980;DHT22;42288;52.182;21.156;2022-12-29T14:21:10;10.60;89.20
16980;DHT22;42288;52.182;21.156;2022-12-29T14:23:40;10.60;89.00
16980;DHT22;42288;52.182;21.156;2022-12-29T14:28:37;10.80;88.10
16980;DHT22;42288;52.182;21.156;2022-12-29T14:31:07;10.80;87.70
16980;DHT22;42288;52.182;21.156;2022-12-29T14:36:41;10.60;88.60
16980;DHT22;42288;52.182;21.156;2022-12-29T14:42:14;10.70;89.00
16980;DHT22;42288;52.182;21.156;2022-12-29T14:44:52;10.50;88.30
16980;DHT22;42288;52.182;21.156;2022-12-29T14:58:19;10.70;88.50
16980;DHT22;42288;52.182;21.156;2022-12-29T15:00:45;10.70;88.70
16980;DHT22;42288;52.182;21.156;2022-12-29T15:06:08;10.60;89.00
16980;DHT22;42288;52.182;21.156;2022-12-29T15:08:45;10.60;89.00
16980;DHT22;42288;52.182;21.156;2022-12-29T15:11:13;10.60;89.40
16980;DHT22;42288;52.182;21.156;2022-12-29T15:13:41;10.60;89.80
16980;DHT22;42288;52.182;21.156;2022-12-29T15:16:30;10.40;90.00
16980;DHT22;42288;52.182;21.156;2022-12-29T15:18:57;10.40;89.90
16980;DHT22;42288;52.182;21.156;2022-12-29T15:21:34;10.50;90.10
16980;DHT22;42288;52.182;21.156;2022-12-29T15:24:01;10.40;90.10
16980;DHT22;42288;52.182;21.156;2022-12-29T15:26:39;10.40;90.20
16980;DHT22;42288;52.182;21.156;2022-12-29T15:29:05;10.40;90.10
16980;DHT22;42288;52.182;21.156;2022-12-29T15:31:30;10.40;90.40
16980;DHT22;42288;52.182;21.156;2022-12-29T15:34:10;10.30;90.50
16980;DHT22;42288;52.182;21.156;2022-12-29T15:36:40;10.30;90.50
16980;DHT22;42288;52.182;21.156;2022-12-29T15:39:20;10.20;90.40
16980;DHT22;42288;52.182;21.156;2022-12-29T15:44:49;10.20;90.80
16980;DHT22;42288;52.182;21.156;2022-12-29T15:47:18;10.20;90.80
16980;DHT22;42288;52.182;21.156;2022-12-29T15:49:47;10.10;91.00
16980;DHT22;42288;52.182;21.156;2022-12-29T15:52:18;10.10;90.90
16980;DHT22;42288;52.182;21.156;2022-12-29T15:54:45;10.00;91.10
16980;DHT22;42288;52.182;21.156;2022-12-29T15:57:22;10.20;90.90
16980;DHT22;42288;52.182;21.156;2022-12-29T15:59:48;10.00;91.10
16980;DHT22;42288;52.182;21.156;2022-12-29T16:02:14;10.00;91.10
16980;DHT22;42288;52.182;21.156;2022-12-29T16:04:40;9.90;91.80
16980;DHT22;42288;52.182;21.156;2022-12-29T16:07:20;9.90;92.00
16980;DHT22;42288;52.182;21.156;2022-12-29T16:09:47;9.90;91.90
16980;DHT22;42288;52.182;21.156;2022-12-29T16:12:18;9.90;92.20
16980;DHT22;42288;52.182;21.156;2022-12-29T16:15:06;9.80;92.20
16980;DHT22;42288;52.182;21.156;2022-12-29T16:17:35;9.90;92.30
16980;DHT22;42288;52.182;21.156;2022-12-29T16:20:18;9.80;92.40
16980;DHT22;42288;52.182;21.156;2022-12-29T16:22:57;9.70;92.70
16980;DHT22;42288;52.182;21.156;2022-12-29T16:25:28;9.60;92.90
16980;DHT22;42288;52.182;21.156;2022-12-29T16:27:57;9.60;93.00
16980;DHT22;42288;52.182;21.156;2022-12-29T16:30:26;9.60;93.00
16980;DHT22;42288;52.182;21.156;2022-12-29T16:32:55;9.50;93.10
16980;DHT22;42288;52.182;21.156;2022-12-29T16:35:24;9.50;93.30
16980;DHT22;42288;52.182;21.156;2022-12-29T16:38:15;9.50;93.10
16980;DHT22;42288;52.182;21.156;2022-12-29T16:40:52;9.50;93.30
16980;DHT22;42288;52.182;21.156;2022-12-29T16:43:26;9.50;93.40
16980;DHT22;42288;52.182;21.156;2022-12-29T16:48:20;9.50;93.50
16980;DHT22;42288;52.182;21.156;2022-12-29T16:50:47;9.40;93.50
16980;DHT22;42288;52.182;21.156;2022-12-29T16:53:26;9.50;93.70
16980;DHT22;42288;52.182;21.156;2022-12-29T16:55:53;9.60;93.40
16980;DHT22;42288;52.182;21.156;2022-12-29T16:58:22;9.80;93.30
16980;DHT22;42288;52.182;21.156;2022-12-29T17:00:48;9.80;93.40
16980;DHT22;42288;52.182;21.156;2022-12-29T17:03:15;9.80;93.40
16980;DHT22;42288;52.182;21.156;2022-12-29T17:05:41;9.90;93.30
16980;DHT22;42288;52.182;21.156;2022-12-29T17:08:20;9.90;93.20
16980;DHT22;42288;52.182;21.156;2022-12-29T17:10:54;10.00;92.50
16980;DHT22;42288;52.182;21.156;2022-12-29T17:13:38;9.90;93.00
16980;DHT22;42288;52.182;21.156;2022-12-29T17:16:06;10.00;92.50
16980;DHT22;42288;52.182;21.156;2022-12-29T17:18:33;9.90;93.20
16980;DHT22;42288;52.182;21.156;2022-12-29T17:20:58;9.90;93.40
16980;DHT22;42288;52.182;21.156;2022-12-29T17:23:24;10.00;92.70
16980;DHT22;42288;52.182;21.156;2022-12-29T17:25:50;10.00;92.70
16980;DHT22;42288;52.182;21.156;2022-12-29T17:30:49;10.00;93.00
16980;DHT22;42288;52.182;21.156;2022-12-29T17:33:19;10.00;93.00
16980;DHT22;42288;52.182;21.156;2022-12-29T17:35:45;10.10;93.00
16980;DHT22;42288;52.182;21.156;2022-12-29T17:38:33;10.10;92.90
16980;DHT22;42288;52.182;21.156;2022-12-29T17:40:59;10.20;92.80
16980;DHT22;42288;52.182;21.156;2022-12-29T17:43:24;10.30;92.50
16980;DHT22;42288;52.182;21.156;2022-12-29T17:45:53;10.30;92.40
16980;DHT22;42288;52.182;21.156;2022-12-29T17:48:19;10.30;92.60
16980;DHT22;42288;52.182;21.156;2022-12-29T17:50:47;10.30;92.60
16980;DHT22;42288;52.182;21.156;2022-12-29T17:53:15;10.30;92.20
16980;DHT22;42288;52.182;21.156;2022-12-29T17:55:43;10.30;92.30
16980;DHT22;42288;52.182;21.156;2022-12-29T17:58:20;10.50;92.20
16980;DHT22;42288;52.182;21.156;2022-12-29T18:00:55;10.40;92.20
16980;DHT22;42288;52.182;21.156;2022-12-29T18:03:33;10.30;92.00
16980;DHT22;42288;52.182;21.156;2022-12-29T18:05:59;10.30;92.20
16980;DHT22;42288;52.182;21.156;2022-12-29T18:08:25;10.30;92.30
16980;DHT22;42288;52.182;21.156;2022-12-29T18:10:53;10.30;92.20
16980;DHT22;42288;52.182;21.156;2022-12-29T18:13:25;10.20;92.00
16980;DHT22;42288;52.182;21.156;2022-12-29T18:15:52;10.20;92.30
16980;DHT22;42288;52.182;21.156;2022-12-29T18:18:23;10.20;92.30
16980;DHT22;42288;52.182;21.156;2022-12-29T18:20:51;10.20;92.10
16980;DHT22;42288;52.182;21.156;2022-12-29T18:23:27;10.10;92.30
16980;DHT22;42288;52.182;21.156;2022-12-29T18:26:12;10.20;92.50